Time;durP1;ratioP1;P1;durP2;ratioP2;P2;SDS_P1;SDS_P2;PMS_P1;PMS_P2;Temp;Humidity;BMP_temperature;BMP_pressure;BME280_temperature;BME280_humidity;BME280_pressure;Samples;Min_cycle;Max_cycle;Signal;HPM_P1;HPM_P2
2022/12/26 04:21:00;;;;;;;;;;;11.10;99.90;;;;;;4940807;29;19930;-69
2022/12/26 04:45:40;;;;;;;;;;;11.20;99.90;;;;;;4947721;29;19953;-70
2022/12/26 04:50:52;;;;;;;;;;;11.30;99.90;;;;;;4948194;29;19926;-69
2022/12/26 04:53:20;;;;;;;;;;;11.40;99.90;;;;;;4947816;28;19930;-70
2022/12/26 04:55:47;;;;;;;;;;;11.40;99.90;;;;;;4957946;28;20472;-69
2022/12/26 04:58:14;;;;;;;;;;;11.30;99.90;;;;;;4961902;28;19933;-68
2022/12/26 05:00:40;;;;;;;;;;;11.30;99.90;;;;;;4962023;28;19957;-69
2022/12/26 05:11:24;;;;;;;;;;;10.80;99.90;;;;;;4942349;29;20313;-70
2022/12/26 05:13:51;;;;;;;;;;;10.80;99.90;;;;;;4944119;29;20017;-70
2022/12/26 05:30:02;;;;;;;;;;;10.40;99.90;;;;;;4959229;28;19945;-70
2022/12/26 05:35:12;;;;;;;;;;;10.30;99.90;;;;;;4940192;29;19923;-69
2022/12/26 05:37:40;;;;;;;;;;;10.20;99.90;;;;;;4954466;28;19937;-69
2022/12/26 05:40:08;;;;;;;;;;;10.20;99.90;;;;;;4947653;29;20370;-69
2022/12/26 05:42:34;;;;;;;;;;;10.10;99.90;;;;;;4945173;29;20021;-69
2022/12/26 05:45:01;;;;;;;;;;;10.10;99.90;;;;;;4960288;28;19934;-69
2022/12/26 05:47:28;;;;;;;;;;;10.10;99.90;;;;;;4960913;28;19926;-69
2022/12/26 05:49:55;;;;;;;;;;;10.00;99.90;;;;;;4940157;29;19927;-70
2022/12/26 05:52:22;;;;;;;;;;;10.00;99.90;;;;;;4941691;29;19930;-69
2022/12/26 05:54:50;;;;;;;;;;;10.00;99.90;;;;;;4944660;29;19926;-69
2022/12/26 05:57:16;;;;;;;;;;;9.90;99.90;;;;;;4954384;28;19931;-69
2022/12/26 05:59:43;;;;;;;;;;;9.90;99.90;;;;;;4943873;29;19931;-69
2022/12/26 06:02:10;;;;;;;;;;;9.90;99.90;;;;;;4950313;28;19927;-69
2022/12/26 06:04:37;;;;;;;;;;;9.90;99.90;;;;;;4942081;28;19981;-69
2022/12/26 06:07:03;;;;;;;;;;;9.90;99.90;;;;;;4958223;28;19930;-68
2022/12/26 06:09:30;;;;;;;;;;;9.90;99.90;;;;;;4960493;28;19930;-69
2022/12/26 06:11:59;;;;;;;;;;;9.90;99.90;;;;;;4942082;29;19927;-68
2022/12/26 06:14:25;;;;;;;;;;;9.90;99.90;;;;;;4944727;29;19926;-69
2022/12/26 06:16:52;;;;;;;;;;;9.90;99.90;;;;;;4956132;28;19930;-69
2022/12/26 06:19:19;;;;;;;;;;;9.90;99.90;;;;;;4953000;28;19982;-68
2022/12/26 06:21:46;;;;;;;;;;;9.90;99.90;;;;;;4942844;29;19927;-69
2022/12/26 06:24:15;;;;;;;;;;;9.90;99.90;;;;;;4958728;28;19953;-69
2022/12/26 06:26:41;;;;;;;;;;;9.90;99.90;;;;;;4956560;28;19927;-69
2022/12/26 06:29:10;;;;;;;;;;;9.90;99.90;;;;;;4959120;28;20393;-69
2022/12/26 06:31:37;;;;;;;;;;;10.00;99.90;;;;;;4956912;28;19934;-69
2022/12/26 06:34:04;;;;;;;;;;;10.10;99.90;;;;;;4945944;29;19934;-69
2022/12/26 06:36:30;;;;;;;;;;;10.10;99.90;;;;;;4956136;28;19950;-68
2022/12/26 06:38:59;;;;;;;;;;;10.10;99.90;;;;;;4959076;28;19927;-70
2022/12/26 06:41:26;;;;;;;;;;;10.10;99.90;;;;;;4959122;28;19930;-69
2022/12/26 06:43:54;;;;;;;;;;;10.20;99.90;;;;;;4950357;28;19927;-69
2022/12/26 06:46:24;;;;;;;;;;;10.20;99.90;;;;;;4944373;29;20405;-69
2022/12/26 06:48:51;;;;;;;;;;;10.20;99.90;;;;;;4939275;29;19931;-69
2022/12/26 06:51:19;;;;;;;;;;;10.20;99.90;;;;;;4945220;29;19926;-69
2022/12/26 06:53:46;;;;;;;;;;;10.10;99.90;;;;;;4955351;28;20394;-69
2022/12/26 06:56:14;;;;;;;;;;;10.10;99.90;;;;;;4959755;28;19930;-69
2022/12/26 06:58:41;;;;;;;;;;;10.10;99.90;;;;;;4960773;28;19934;-69
2022/12/26 07:01:09;;;;;;;;;;;10.10;99.90;;;;;;4945393;29;19931;-69
2022/12/26 07:03:37;;;;;;;;;;;10.00;99.90;;;;;;4943858;29;20354;-69
2022/12/26 07:06:05;;;;;;;;;;;10.10;99.90;;;;;;4957942;28;19927;-69
2022/12/26 07:08:31;;;;;;;;;;;10.00;99.90;;;;;;4944490;29;19930;-69
2022/12/26 07:10:58;;;;;;;;;;;10.00;99.90;;;;;;4941412;29;20436;-69
2022/12/26 07:13:25;;;;;;;;;;;9.90;99.90;;;;;;4960223;28;19926;-69
2022/12/26 07:15:52;;;;;;;;;;;9.90;99.90;;;;;;4954349;28;19955;-69
2022/12/26 07:18:19;;;;;;;;;;;9.90;99.90;;;;;;4940111;29;19957;-66
2022/12/26 07:20:47;;;;;;;;;;;9.90;99.90;;;;;;4955560;28;19927;-69
2022/12/26 07:23:14;;;;;;;;;;;9.80;99.90;;;;;;4956027;28;20405;-70
2022/12/26 07:25:40;;;;;;;;;;;9.90;99.90;;;;;;4943397;29;19930;-68
2022/12/26 07:28:07;;;;;;;;;;;9.80;99.90;;;;;;4946149;29;19934;-69
2022/12/26 07:30:34;;;;;;;;;;;9.90;99.90;;;;;;4943806;29;19930;-69
2022/12/26 07:33:01;;;;;;;;;;;9.90;99.90;;;;;;4942909;29;20025;-69
2022/12/26 07:35:28;;;;;;;;;;;9.80;99.90;;;;;;4951900;28;20259;-69
2022/12/26 07:37:56;;;;;;;;;;;9.90;99.90;;;;;;4957016;28;19931;-69
2022/12/26 07:40:23;;;;;;;;;;;9.90;99.90;;;;;;4960036;28;19930;-69
2022/12/26 07:42:52;;;;;;;;;;;9.90;99.90;;;;;;4958334;28;19926;-69
2022/12/26 07:45:19;;;;;;;;;;;9.80;99.90;;;;;;4952711;28;20341;-69
2022/12/26 07:47:46;;;;;;;;;;;9.90;99.90;;;;;;4940365;29;19927;-68
2022/12/26 07:50:13;;;;;;;;;;;9.90;99.90;;;;;;4939336;29;19927;-69
2022/12/26 07:52:39;;;;;;;;;;;10.00;99.90;;;;;;4943599;29;20353;-69
2022/12/26 07:55:08;;;;;;;;;;;10.10;99.90;;;;;;4946296;29;19927;-68
2022/12/26 07:57:35;;;;;;;;;;;10.10;99.90;;;;;;4955889;28;19926;-68
2022/12/26 08:00:03;;;;;;;;;;;10.00;99.90;;;;;;4943629;29;19931;-68
2022/12/26 08:02:38;;;;;;;;;;;10.10;99.90;;;;;;4941980;29;19986;-69
2022/12/26 08:05:05;;;;;;;;;;;10.10;99.90;;;;;;4956083;28;19934;-68
2022/12/26 08:07:32;;;;;;;;;;;10.10;99.90;;;;;;4946110;29;19931;-69
2022/12/26 08:09:59;;;;;;;;;;;10.20;99.90;;;;;;4932507;29;20462;-68
2022/12/26 08:12:27;;;;;;;;;;;10.20;99.90;;;;;;4952113;28;19934;-68
2022/12/26 08:14:54;;;;;;;;;;;10.20;99.90;;;;;;4955505;28;19926;-68
2022/12/26 08:17:21;;;;;;;;;;;10.30;99.90;;;;;;4943335;28;19927;-68
2022/12/26 08:19:47;;;;;;;;;;;10.40;99.90;;;;;;4940319;29;20347;-68
2022/12/26 08:22:14;;;;;;;;;;;10.40;99.90;;;;;;4956797;28;19934;-69
2022/12/26 08:24:41;;;;;;;;;;;10.40;99.90;;;;;;4943164;29;20334;-68
2022/12/26 08:27:08;;;;;;;;;;;10.40;99.90;;;;;;4953441;28;19927;-69
2022/12/26 08:29:36;;;;;;;;;;;10.50;99.90;;;;;;4941976;29;19926;-69
2022/12/26 08:32:03;;;;;;;;;;;10.50;99.90;;;;;;4946920;29;19934;-69
2022/12/26 08:34:31;;;;;;;;;;;10.50;99.90;;;;;;4959383;28;20386;-68
2022/12/26 08:36:59;;;;;;;;;;;10.60;99.90;;;;;;4959381;28;19926;-68
2022/12/26 08:39:26;;;;;;;;;;;10.60;99.90;;;;;;4946862;28;20349;-69
2022/12/26 08:41:52;;;;;;;;;;;10.70;99.90;;;;;;4960504;28;19930;-69
2022/12/26 08:44:19;;;;;;;;;;;10.70;99.90;;;;;;4962200;28;19926;-69
2022/12/26 08:46:48;;;;;;;;;;;10.80;99.90;;;;;;4955499;28;19981;-69
2022/12/26 08:49:14;;;;;;;;;;;10.80;99.90;;;;;;4946186;29;19935;-69
2022/12/26 08:51:41;;;;;;;;;;;10.90;99.90;;;;;;4942945;29;19927;-68
2022/12/26 08:54:08;;;;;;;;;;;10.80;99.90;;;;;;4942242;29;19982;-69
2022/12/26 08:56:35;;;;;;;;;;;10.90;99.90;;;;;;4961183;28;19934;-68
2022/12/26 08:59:01;;;;;;;;;;;10.90;99.90;;;;;;4945262;29;19934;-68
2022/12/26 09:01:30;;;;;;;;;;;10.90;99.90;;;;;;4957773;28;19926;-68
2022/12/26 09:03:59;;;;;;;;;;;10.90;99.90;;;;;;4963794;28;19927;-69
2022/12/26 09:06:25;;;;;;;;;;;11.00;99.90;;;;;;4944441;29;19938;-69
2022/12/26 09:08:52;;;;;;;;;;;11.00;99.90;;;;;;4935241;29;19942;-70
2022/12/26 09:11:21;;;;;;;;;;;11.10;99.90;;;;;;4955812;28;19927;-69
2022/12/26 09:13:48;;;;;;;;;;;11.10;99.90;;;;;;4948286;29;19981;-70
2022/12/26 09:16:16;;;;;;;;;;;11.10;99.90;;;;;;4945204;29;19938;-69
2022/12/26 09:18:43;;;;;;;;;;;11.10;99.90;;;;;;4959418;28;19930;-67
2022/12/26 09:21:11;;;;;;;;;;;11.10;99.90;;;;;;4947479;29;19930;-69
2022/12/26 09:23:39;;;;;;;;;;;11.10;99.90;;;;;;4945717;29;20346;-69
2022/12/26 09:26:06;;;;;;;;;;;11.20;99.90;;;;;;4959846;28;19927;-68
2022/12/26 09:28:33;;;;;;;;;;;11.20;99.90;;;;;;4963038;28;20330;-68
2022/12/26 09:31:00;;;;;;;;;;;11.10;99.90;;;;;;4960847;28;19931;-69
2022/12/26 09:33:27;;;;;;;;;;;11.10;99.90;;;;;;4942507;29;19946;-70
2022/12/26 09:35:54;;;;;;;;;;;11.10;99.90;;;;;;4959115;28;19990;-69
2022/12/26 09:38:23;;;;;;;;;;;11.10;99.90;;;;;;4962309;28;19969;-69
2022/12/26 09:40:55;;;;;;;;;;;11.10;99.90;;;;;;4956968;28;19981;-69
2022/12/26 09:43:26;;;;;;;;;;;11.20;99.90;;;;;;4936345;29;19986;-70
2022/12/26 09:45:58;;;;;;;;;;;11.30;99.90;;;;;;4954701;28;20401;-68
2022/12/26 09:48:28;;;;;;;;;;;11.30;99.90;;;;;;4952127;28;19927;-69
2022/12/26 09:50:56;;;;;;;;;;;11.40;99.90;;;;;;4955266;28;19927;-69
2022/12/26 09:53:29;;;;;;;;;;;11.50;99.90;;;;;;4961312;28;19930;-69
2022/12/26 09:55:57;;;;;;;;;;;11.50;99.90;;;;;;4943096;29;19927;-68
2022/12/26 09:58:27;;;;;;;;;;;11.50;99.90;;;;;;4943574;28;19934;-68
2022/12/26 10:00:56;;;;;;;;;;;11.60;99.90;;;;;;4942132;29;20029;-69
2022/12/26 10:03:24;;;;;;;;;;;11.70;99.90;;;;;;4941707;29;19926;-69
2022/12/26 10:05:58;;;;;;;;;;;11.70;99.90;;;;;;4947198;29;19927;-67
2022/12/26 10:08:27;;;;;;;;;;;11.60;99.90;;;;;;4951300;28;20338;-70
2022/12/26 10:10:58;;;;;;;;;;;11.50;99.90;;;;;;4941570;29;20282;-68
2022/12/26 10:13:28;;;;;;;;;;;11.40;99.90;;;;;;4945334;29;19927;-68
2022/12/26 10:15:59;;;;;;;;;;;11.40;99.90;;;;;;4959497;28;19981;-69
2022/12/26 10:18:31;;;;;;;;;;;11.40;99.90;;;;;;4944045;29;19927;-69
2022/12/26 10:21:07;;;;;;;;;;;11.40;99.90;;;;;;4940225;29;19981;-68
2022/12/26 10:23:37;;;;;;;;;;;11.40;99.90;;;;;;4941994;29;20458;-69
2022/12/26 10:26:06;;;;;;;;;;;11.50;99.90;;;;;;4959826;28;19937;-70
2022/12/26 10:28:35;;;;;;;;;;;11.70;99.90;;;;;;4957907;28;19930;-69
2022/12/26 10:31:04;;;;;;;;;;;11.90;99.90;;;;;;4950884;28;19927;-69
2022/12/26 10:33:35;;;;;;;;;;;11.90;99.90;;;;;;4947491;29;19982;-69
2022/12/26 10:36:02;;;;;;;;;;;11.90;99.90;;;;;;4957140;28;20389;-68
2022/12/26 10:38:33;;;;;;;;;;;11.90;99.90;;;;;;4945733;29;20301;-70
2022/12/26 10:41:04;;;;;;;;;;;11.90;99.90;;;;;;4955998;28;19927;-68
2022/12/26 10:43:32;;;;;;;;;;;12.00;99.90;;;;;;4954246;28;20398;-68
2022/12/26 10:46:07;;;;;;;;;;;12.10;99.90;;;;;;4955986;28;19934;-69
2022/12/26 10:48:33;;;;;;;;;;;12.20;99.90;;;;;;4944182;29;19935;-70
2022/12/26 10:51:00;;;;;;;;;;;12.30;99.90;;;;;;4935734;29;19926;-69
2022/12/26 10:53:27;;;;;;;;;;;12.60;99.90;;;;;;4940292;29;19927;-70
2022/12/26 10:55:55;;;;;;;;;;;12.90;99.90;;;;;;4957745;28;20054;-69
2022/12/26 10:58:27;;;;;;;;;;;13.20;99.90;;;;;;4942352;29;20357;-69
2022/12/26 11:00:54;;;;;;;;;;;13.30;99.90;;;;;;4954357;28;19930;-69
2022/12/26 11:03:21;;;;;;;;;;;13.20;99.90;;;;;;4959920;28;19934;-69
2022/12/26 11:05:49;;;;;;;;;;;13.30;99.90;;;;;;4954713;28;19956;-69
2022/12/26 11:08:18;;;;;;;;;;;13.70;99.90;;;;;;4955867;28;19927;-67
2022/12/26 11:10:48;;;;;;;;;;;13.20;99.90;;;;;;4940016;29;20378;-68
2022/12/26 11:13:18;;;;;;;;;;;13.30;99.90;;;;;;4940468;29;19935;-69
2022/12/26 11:15:48;;;;;;;;;;;13.60;99.90;;;;;;4942274;29;19931;-69
2022/12/26 11:18:17;;;;;;;;;;;13.00;99.90;;;;;;4949675;28;19939;-69
2022/12/26 11:20:44;;;;;;;;;;;12.30;99.90;;;;;;4940171;29;20435;-69
2022/12/26 11:23:22;;;;;;;;;;;12.30;99.90;;;;;;4938171;29;19931;-68
2022/12/26 11:25:49;;;;;;;;;;;12.10;99.90;;;;;;4946200;29;19930;-70
2022/12/26 11:28:21;;;;;;;;;;;12.10;99.90;;;;;;4959279;28;19926;-67
2022/12/26 11:30:49;;;;;;;;;;;13.50;99.90;;;;;;4956893;28;20401;-69
2022/12/26 11:33:21;;;;;;;;;;;14.90;99.90;;;;;;4941221;29;19969;-69
2022/12/26 11:35:49;;;;;;;;;;;16.50;99.90;;;;;;4957560;28;19950;-69
2022/12/26 11:38:33;;;;;;;;;;;17.20;99.90;;;;;;4942614;29;19927;-65
2022/12/26 11:43:45;;;;;;;;;;;14.90;99.90;;;;;;4942507;29;19930;-69
2022/12/26 11:46:13;;;;;;;;;;;14.10;99.90;;;;;;4959150;28;19927;-69
2022/12/26 11:48:40;;;;;;;;;;;14.10;99.90;;;;;;4956557;28;19953;-69
2022/12/26 11:51:09;;;;;;;;;;;14.90;99.90;;;;;;4940437;29;19934;-69
2022/12/26 11:53:36;;;;;;;;;;;14.00;99.90;;;;;;4938109;29;19926;-69
2022/12/26 11:56:04;;;;;;;;;;;15.70;99.90;;;;;;4939503;29;19931;-69
2022/12/26 11:58:31;;;;;;;;;;;15.40;99.90;;;;;;4954837;28;19927;-67
2022/12/26 12:01:06;;;;;;;;;;;15.80;99.90;;;;;;4952229;28;19938;-69
2022/12/26 12:03:36;;;;;;;;;;;15.80;99.90;;;;;;4957461;28;19937;-69
2022/12/26 12:06:07;;;;;;;;;;;15.10;99.90;;;;;;4956681;28;20025;-70
2022/12/26 12:08:39;;;;;;;;;;;17.30;99.90;;;;;;4958521;28;19931;-69
2022/12/26 12:11:10;;;;;;;;;;;16.90;99.90;;;;;;4957348;28;19927;-69
2022/12/26 12:13:52;;;;;;;;;;;17.40;99.90;;;;;;4943528;29;19926;-69
2022/12/26 12:16:30;;;;;;;;;;;16.40;99.90;;;;;;4935301;29;19926;-69
2022/12/26 12:19:01;;;;;;;;;;;15.10;99.90;;;;;;4937247;29;19930;-70
2022/12/26 12:21:31;;;;;;;;;;;14.30;99.90;;;;;;4955693;28;19934;-69
2022/12/26 12:24:09;;;;;;;;;;;14.00;99.90;;;;;;4958937;28;19934;-68
2022/12/26 12:26:37;;;;;;;;;;;14.10;99.90;;;;;;4959730;28;19926;-69
2022/12/26 12:29:11;;;;;;;;;;;14.20;99.90;;;;;;4946325;29;20357;-69
2022/12/26 12:31:42;;;;;;;;;;;13.60;99.90;;;;;;4960087;28;20465;-69
2022/12/26 12:34:15;;;;;;;;;;;13.60;99.90;;;;;;4942940;29;19927;-69
2022/12/26 12:36:50;;;;;;;;;;;13.60;99.90;;;;;;4959100;28;19982;-69
2022/12/26 12:39:19;;;;;;;;;;;13.10;99.90;;;;;;4949140;28;19931;-69
2022/12/26 12:42:01;;;;;;;;;;;13.00;99.90;;;;;;4944307;29;19927;-69
2022/12/26 12:44:30;;;;;;;;;;;12.70;99.90;;;;;;4929001;29;19966;-69
2022/12/26 12:47:15;;;;;;;;;;;12.30;99.90;;;;;;4958688;28;19935;-69
2022/12/26 12:49:49;;;;;;;;;;;12.20;99.90;;;;;;4962171;28;19993;-69
2022/12/26 12:52:20;;;;;;;;;;;11.90;99.90;;;;;;4945940;29;19931;-69
2022/12/26 12:55:02;;;;;;;;;;;11.20;99.90;;;;;;4958755;28;19981;-70
2022/12/26 12:57:33;;;;;;;;;;;10.70;99.90;;;;;;4943295;29;19927;-69
2022/12/26 13:00:03;;;;;;;;;;;10.00;99.90;;;;;;4942168;29;19927;-69
2022/12/26 13:02:33;;;;;;;;;;;9.60;99.90;;;;;;4941808;29;19927;-65
2022/12/26 13:05:06;;;;;;;;;;;9.40;99.90;;;;;;4943715;29;19934;-69
2022/12/26 13:07:34;;;;;;;;;;;9.30;99.90;;;;;;4957610;28;19927;-69
2022/12/26 13:10:02;;;;;;;;;;;9.30;99.90;;;;;;4959735;28;19927;-68
2022/12/26 13:12:33;;;;;;;;;;;9.30;99.90;;;;;;4956315;28;19931;-69
2022/12/26 13:15:01;;;;;;;;;;;9.30;99.90;;;;;;4942450;28;19926;-68
2022/12/26 13:17:31;;;;;;;;;;;9.20;99.90;;;;;;4960322;28;19927;-68
2022/12/26 13:19:59;;;;;;;;;;;9.20;99.90;;;;;;4959805;28;20456;-68
2022/12/26 13:24:22;;;;;;;;;;;9.20;99.90;;;;;;4936926;29;20413;-68
2022/12/26 13:25:15;;;;;;;;;;;9.20;99.90;;;;;;4940775;29;19962;-70
2022/12/26 13:27:43;;;;;;;;;;;9.20;99.90;;;;;;4957048;28;19923;-68
2022/12/26 13:30:11;;;;;;;;;;;9.30;99.90;;;;;;4956670;28;19978;-68
2022/12/26 13:32:38;;;;;;;;;;;9.30;99.90;;;;;;4960127;28;19930;-70
2022/12/26 13:35:05;;;;;;;;;;;9.40;99.90;;;;;;4960549;28;19986;-69
2022/12/26 13:37:47;;;;;;;;;;;9.40;99.90;;;;;;4941867;29;19934;-69
2022/12/26 13:40:17;;;;;;;;;;;9.40;99.90;;;;;;4955647;28;19934;-68
2022/12/26 13:45:46;;;;;;;;;;;9.10;99.90;;;;;;4944142;29;20418;-68
2022/12/26 13:48:31;;;;;;;;;;;8.90;99.90;;;;;;4942002;29;19930;-67
2022/12/26 13:50:59;;;;;;;;;;;8.80;99.90;;;;;;4941587;29;19927;-68
2022/12/26 13:53:28;;;;;;;;;;;8.70;99.90;;;;;;4943935;29;19935;-66
2022/12/26 13:55:57;;;;;;;;;;;8.70;99.90;;;;;;4940061;29;19934;-68
2022/12/26 13:58:34;;;;;;;;;;;8.70;99.90;;;;;;4944201;29;19931;-69
2022/12/26 14:01:04;;;;;;;;;;;8.70;99.90;;;;;;4955865;28;19935;-68
2022/12/26 14:03:45;;;;;;;;;;;8.70;99.90;;;;;;4960653;28;19926;-69
2022/12/26 14:06:27;;;;;;;;;;;8.70;99.90;;;;;;4943732;29;19926;-69
2022/12/26 14:09:08;;;;;;;;;;;8.60;99.90;;;;;;4951965;28;19981;-70
2022/12/26 14:11:42;;;;;;;;;;;8.60;99.90;;;;;;4954288;28;20338;-69
2022/12/26 14:14:12;;;;;;;;;;;8.70;99.90;;;;;;4959785;28;19935;-68
2022/12/26 14:16:45;;;;;;;;;;;8.70;99.90;;;;;;4956875;28;19956;-69
2022/12/26 14:19:16;;;;;;;;;;;8.70;99.90;;;;;;4937697;29;19933;-68
2022/12/26 14:21:48;;;;;;;;;;;8.60;99.90;;;;;;4956027;28;19927;-69
2022/12/26 14:24:21;;;;;;;;;;;8.60;99.90;;;;;;4960229;28;20414;-68
2022/12/26 14:26:53;;;;;;;;;;;8.60;99.90;;;;;;4958495;28;19985;-68
2022/12/26 14:29:24;;;;;;;;;;;8.60;99.90;;;;;;4934099;29;19947;-70
2022/12/26 14:32:03;;;;;;;;;;;8.70;99.90;;;;;;4958686;28;19958;-69
2022/12/26 14:34:35;;;;;;;;;;;8.70;99.90;;;;;;4953087;28;19927;-69
2022/12/26 14:37:09;;;;;;;;;;;8.60;99.90;;;;;;4958526;28;19926;-69
2022/12/26 14:39:39;;;;;;;;;;;8.60;99.90;;;;;;4938339;29;19926;-69
2022/12/26 14:45:26;;;;;;;;;;;8.70;99.90;;;;;;4942450;29;19922;-68
2022/12/26 14:47:54;;;;;;;;;;;8.70;99.90;;;;;;4946187;28;19926;-69
2022/12/26 14:50:34;;;;;;;;;;;8.70;99.90;;;;;;4952471;28;19934;-70
2022/12/26 14:53:16;;;;;;;;;;;8.60;99.90;;;;;;4954076;28;19926;-69
2022/12/26 14:55:47;;;;;;;;;;;8.60;99.90;;;;;;4941936;29;19927;-68
2022/12/26 14:58:32;;;;;;;;;;;8.60;99.90;;;;;;4955804;28;19982;-67
2022/12/26 15:01:32;;;;;;;;;;;8.60;99.90;;;;;;4936362;29;19982;-69
2022/12/26 15:04:03;;;;;;;;;;;8.60;99.90;;;;;;4950112;28;19931;-69
2022/12/26 15:06:42;;;;;;;;;;;8.50;99.90;;;;;;4958578;28;19931;-69
2022/12/26 15:09:21;;;;;;;;;;;8.50;99.90;;;;;;4958962;28;19938;-68
2022/12/26 15:12:00;;;;;;;;;;;8.40;99.90;;;;;;4959433;28;19989;-69
2022/12/26 15:14:38;;;;;;;;;;;8.40;99.90;;;;;;4956240;28;19926;-68
2022/12/26 15:17:11;;;;;;;;;;;8.40;99.90;;;;;;4940862;29;19935;-69
2022/12/26 15:20:08;;;;;;;;;;;8.30;99.90;;;;;;4937528;29;19927;-69
2022/12/26 15:22:47;;;;;;;;;;;8.30;99.90;;;;;;4933103;29;19927;-69
2022/12/26 15:25:33;;;;;;;;;;;8.30;99.90;;;;;;4955114;28;20373;-69
2022/12/26 15:28:11;;;;;;;;;;;8.30;99.90;;;;;;4942776;29;19927;-68
2022/12/26 15:30:44;;;;;;;;;;;8.30;99.90;;;;;;4939955;29;19927;-69
2022/12/26 15:33:15;;;;;;;;;;;8.30;99.90;;;;;;4940903;29;19931;-69
2022/12/26 15:35:48;;;;;;;;;;;8.20;99.90;;;;;;4940230;29;19950;-69
2022/12/26 15:38:20;;;;;;;;;;;8.20;99.90;;;;;;4939117;28;19935;-68
2022/12/26 15:40:52;;;;;;;;;;;8.20;99.90;;;;;;4961222;28;20002;-69
2022/12/26 15:43:27;;;;;;;;;;;8.10;99.90;;;;;;4959033;28;19931;-68
2022/12/26 15:45:59;;;;;;;;;;;8.00;99.90;;;;;;4948750;29;19927;-69
2022/12/26 15:48:31;;;;;;;;;;;8.00;99.90;;;;;;4940591;29;19931;-68
2022/12/26 15:51:01;;;;;;;;;;;7.90;99.90;;;;;;4954176;28;19935;-68
2022/12/26 15:53:34;;;;;;;;;;;7.90;99.90;;;;;;4959079;28;19982;-68
2022/12/26 15:56:10;;;;;;;;;;;7.80;99.90;;;;;;4958979;28;19927;-68
2022/12/26 15:58:58;;;;;;;;;;;7.70;99.90;;;;;;4961668;28;19927;-69
2022/12/26 16:01:38;;;;;;;;;;;7.70;99.90;;;;;;4951564;28;19951;-69
2022/12/26 16:04:07;;;;;;;;;;;7.70;99.90;;;;;;4937531;29;19935;-68
2022/12/26 16:06:42;;;;;;;;;;;7.60;99.90;;;;;;4961880;28;20394;-68
2022/12/26 16:09:21;;;;;;;;;;;7.60;99.90;;;;;;4958530;28;19937;-69
2022/12/26 16:11:50;;;;;;;;;;;7.60;99.90;;;;;;4957484;28;19950;-69
2022/12/26 16:14:25;;;;;;;;;;;7.60;99.90;;;;;;4941409;29;19927;-68
2022/12/26 16:16:52;;;;;;;;;;;7.60;99.90;;;;;;4940696;29;19931;-70
2022/12/26 16:19:19;;;;;;;;;;;7.50;99.90;;;;;;4939545;29;19927;-69
2022/12/26 16:24:36;;;;;;;;;;;7.50;99.90;;;;;;4937097;29;19966;-70
2022/12/26 16:27:04;;;;;;;;;;;7.50;99.90;;;;;;4960882;28;19926;-69
2022/12/26 16:29:31;;;;;;;;;;;7.50;99.90;;;;;;4943436;29;20342;-69
2022/12/26 16:32:02;;;;;;;;;;;7.50;99.90;;;;;;4959430;28;19934;-69
2022/12/26 16:34:30;;;;;;;;;;;7.50;99.90;;;;;;4953283;28;20002;-70
2022/12/26 16:36:57;;;;;;;;;;;7.40;99.90;;;;;;4948484;29;19927;-69
2022/12/26 16:39:24;;;;;;;;;;;7.40;99.90;;;;;;4938841;29;19926;-70
2022/12/26 16:42:00;;;;;;;;;;;7.30;99.90;;;;;;4961111;28;19934;-69
2022/12/26 16:44:28;;;;;;;;;;;7.30;99.90;;;;;;4958739;28;19930;-69
2022/12/26 16:46:56;;;;;;;;;;;7.10;99.90;;;;;;4945185;29;19927;-69
2022/12/26 16:49:26;;;;;;;;;;;7.10;99.90;;;;;;4940916;29;19930;-69
2022/12/26 16:51:53;;;;;;;;;;;7.00;99.90;;;;;;4956252;28;20352;-69
2022/12/26 16:54:26;;;;;;;;;;;6.90;99.90;;;;;;4953642;28;19931;-69
2022/12/26 16:56:57;;;;;;;;;;;6.90;99.90;;;;;;4943189;29;20398;-69
2022/12/26 16:59:28;;;;;;;;;;;6.80;99.90;;;;;;4953973;28;19931;-69
2022/12/26 17:01:57;;;;;;;;;;;6.80;99.90;;;;;;4936224;29;19927;-70
2022/12/26 17:04:25;;;;;;;;;;;6.70;99.90;;;;;;4941750;29;19983;-69
2022/12/26 17:06:54;;;;;;;;;;;6.70;99.90;;;;;;4939574;29;19931;-70
2022/12/26 17:09:22;;;;;;;;;;;6.70;99.90;;;;;;4941447;29;19931;-68
2022/12/26 17:11:52;;;;;;;;;;;6.50;99.90;;;;;;4944501;29;19927;-69
2022/12/26 17:14:20;;;;;;;;;;;6.50;99.90;;;;;;4942987;29;19927;-68
2022/12/26 17:16:56;;;;;;;;;;;6.50;99.90;;;;;;4941158;29;19934;-68
2022/12/26 17:19:26;;;;;;;;;;;6.40;99.90;;;;;;4939338;29;19927;-68
2022/12/26 17:22:18;;;;;;;;;;;6.30;99.90;;;;;;4953992;28;19934;-69
2022/12/26 17:24:45;;;;;;;;;;;6.20;99.90;;;;;;4943442;29;19933;-70
2022/12/26 17:27:16;;;;;;;;;;;6.10;99.90;;;;;;4943476;29;19931;-68
2022/12/26 17:29:51;;;;;;;;;;;6.10;99.90;;;;;;4962494;28;19930;-70
2022/12/26 17:32:39;;;;;;;;;;;6.00;99.90;;;;;;4941907;29;19933;-69
2022/12/26 17:35:12;;;;;;;;;;;5.90;99.90;;;;;;4933746;29;20405;-69
2022/12/26 17:37:39;;;;;;;;;;;5.80;99.90;;;;;;4939441;29;20314;-69
2022/12/26 17:40:08;;;;;;;;;;;5.80;99.90;;;;;;4940563;29;20432;-69
2022/12/26 17:42:41;;;;;;;;;;;5.70;99.90;;;;;;4961672;28;19926;-67
2022/12/26 17:45:09;;;;;;;;;;;5.70;99.90;;;;;;4958944;28;19926;-70
2022/12/26 17:47:36;;;;;;;;;;;5.60;99.90;;;;;;4959913;28;20393;-69
2022/12/26 17:50:03;;;;;;;;;;;5.60;99.90;;;;;;4940662;29;19933;-69
2022/12/26 17:52:31;;;;;;;;;;;5.50;99.90;;;;;;4941812;29;19933;-69
2022/12/26 17:54:58;;;;;;;;;;;5.50;99.90;;;;;;4951498;28;19927;-68
2022/12/26 17:57:26;;;;;;;;;;;5.40;99.90;;;;;;4955839;28;19926;-69
2022/12/26 17:59:54;;;;;;;;;;;5.40;99.90;;;;;;4954442;28;19927;-68
2022/12/26 18:02:21;;;;;;;;;;;5.30;99.90;;;;;;4959358;28;19926;-67
2022/12/26 18:04:50;;;;;;;;;;;5.20;99.90;;;;;;4954361;28;20373;-69
2022/12/26 18:07:18;;;;;;;;;;;5.20;99.90;;;;;;4940529;29;19982;-69
2022/12/26 18:09:47;;;;;;;;;;;5.10;99.90;;;;;;4942515;29;19927;-69
2022/12/26 18:12:15;;;;;;;;;;;5.00;99.90;;;;;;4935038;29;19938;-69
2022/12/26 18:14:41;;;;;;;;;;;4.90;99.90;;;;;;4942316;29;19926;-69
2022/12/26 18:17:11;;;;;;;;;;;4.90;99.90;;;;;;4956818;28;19974;-69
2022/12/26 18:19:38;;;;;;;;;;;4.80;99.90;;;;;;4955778;28;19927;-69
2022/12/26 18:22:05;;;;;;;;;;;4.80;99.90;;;;;;4956626;28;19934;-69
2022/12/26 18:24:32;;;;;;;;;;;4.70;99.90;;;;;;4959827;28;19927;-70
2022/12/26 18:27:00;;;;;;;;;;;4.70;99.90;;;;;;4941400;29;19933;-69
2022/12/26 18:29:27;;;;;;;;;;;4.70;99.90;;;;;;4943590;29;19949;-69
2022/12/26 18:31:54;;;;;;;;;;;4.60;99.90;;;;;;4939111;29;19927;-69
2022/12/26 18:34:21;;;;;;;;;;;4.60;99.90;;;;;;4950055;28;19986;-69
2022/12/26 18:36:47;;;;;;;;;;;4.50;99.90;;;;;;4942225;29;19938;-69
2022/12/26 18:39:15;;;;;;;;;;;4.50;99.90;;;;;;4957280;28;19985;-69
2022/12/26 18:41:41;;;;;;;;;;;4.40;99.90;;;;;;4953969;28;20021;-70
2022/12/26 18:44:10;;;;;;;;;;;4.40;99.90;;;;;;4941283;29;19934;-69
2022/12/26 18:46:36;;;;;;;;;;;4.40;99.90;;;;;;4954914;28;19938;-69
2022/12/26 18:49:03;;;;;;;;;;;4.40;99.90;;;;;;4958943;28;20386;-68
2022/12/26 18:51:30;;;;;;;;;;;4.40;99.90;;;;;;4937420;29;19930;-69
2022/12/26 18:53:57;;;;;;;;;;;4.40;99.90;;;;;;4957643;28;19930;-68
2022/12/26 18:56:24;;;;;;;;;;;4.40;99.90;;;;;;4936290;29;19934;-69
2022/12/26 18:58:51;;;;;;;;;;;4.30;99.90;;;;;;4958201;28;19933;-68
2022/12/26 19:01:19;;;;;;;;;;;4.30;99.90;;;;;;4952982;28;20279;-69
2022/12/26 19:03:46;;;;;;;;;;;4.30;99.90;;;;;;4955901;28;20620;-69
2022/12/26 19:06:22;;;;;;;;;;;4.20;99.90;;;;;;4940289;29;19926;-69
2022/12/26 19:08:49;;;;;;;;;;;4.20;99.90;;;;;;4952519;28;20348;-67
2022/12/26 19:11:16;;;;;;;;;;;4.20;99.90;;;;;;4951887;28;19990;-69
2022/12/26 19:13:43;;;;;;;;;;;4.30;99.90;;;;;;4957255;28;19931;-69
2022/12/26 19:16:10;;;;;;;;;;;4.30;99.90;;;;;;4956958;28;19934;-70
2022/12/26 19:18:38;;;;;;;;;;;4.20;99.90;;;;;;4936261;29;19938;-69
2022/12/26 19:21:05;;;;;;;;;;;4.20;99.90;;;;;;4940683;29;20286;-68
2022/12/26 19:23:32;;;;;;;;;;;4.20;99.90;;;;;;4942038;29;20373;-68
2022/12/26 19:25:59;;;;;;;;;;;4.20;99.90;;;;;;4938315;29;19926;-69
2022/12/26 19:28:25;;;;;;;;;;;4.10;99.90;;;;;;4955129;28;19927;-69
2022/12/26 19:30:52;;;;;;;;;;;4.10;99.90;;;;;;4941879;29;19927;-69
2022/12/26 19:33:19;;;;;;;;;;;4.00;99.90;;;;;;4956385;28;19927;-69
2022/12/26 19:35:54;;;;;;;;;;;3.90;99.90;;;;;;4940315;29;19938;-69
2022/12/26 19:38:21;;;;;;;;;;;3.80;99.90;;;;;;4951223;28;19931;-68
2022/12/26 19:40:48;;;;;;;;;;;3.80;99.90;;;;;;4941513;29;19986;-69
2022/12/26 19:43:15;;;;;;;;;;;3.80;99.90;;;;;;4944535;29;19983;-69
2022/12/26 19:45:42;;;;;;;;;;;3.80;99.90;;;;;;4959180;28;19931;-69
2022/12/26 19:48:08;;;;;;;;;;;3.80;99.90;;;;;;4953549;28;19927;-69
2022/12/26 19:50:36;;;;;;;;;;;3.80;99.90;;;;;;4958018;28;19930;-68
2022/12/26 19:53:04;;;;;;;;;;;3.90;99.90;;;;;;4938349;29;20349;-68
2022/12/26 19:55:31;;;;;;;;;;;3.80;99.90;;;;;;4955634;28;19937;-69
2022/12/26 19:57:57;;;;;;;;;;;3.80;99.90;;;;;;4958342;28;19948;-68
2022/12/26 20:00:24;;;;;;;;;;;3.80;99.90;;;;;;4955456;28;20394;-69